createdAt,value
2018-11-05T00:03:56.573Z,24.90
2018-11-05T00:09:00.411Z,31.90
2018-11-05T00:14:20.817Z,29.00
2018-11-05T00:19:24.568Z,32.43
2018-11-05T00:24:28.306Z,32.63
2018-11-05T00:29:32.072Z,34.27
2018-11-05T00:34:35.800Z,34.70
2018-11-05T00:39:39.537Z,33.03
2018-11-05T00:44:43.269Z,28.73
2018-11-05T00:49:47.004Z,34.40
2018-11-05T00:54:50.732Z,32.10
2018-11-05T00:59:54.505Z,31.40
2018-11-05T01:04:58.460Z,27.33
2018-11-05T01:10:02.193Z,33.53
2018-11-05T01:15:08.060Z,36.93
2018-11-05T01:20:12.908Z,34.97
2018-11-05T01:25:16.633Z,37.37
2018-11-05T01:30:20.410Z,37.07
2018-11-05T01:35:24.109Z,38.60
2018-11-05T01:40:27.836Z,35.37
2018-11-05T01:45:31.580Z,36.80
2018-11-05T01:50:35.420Z,33.77
2018-11-05T01:55:39.141Z,38.07
2018-11-05T02:00:42.868Z,33.87
2018-11-05T02:05:46.591Z,34.20
2018-11-05T02:10:50.303Z,38.30
2018-11-05T02:15:54.062Z,41.07
2018-11-05T02:20:57.781Z,40.47
2018-11-05T02:26:01.498Z,34.80
2018-11-05T02:31:05.226Z,34.20
2018-11-05T02:36:08.960Z,34.63
2018-11-05T02:41:12.700Z,35.20
2018-11-05T02:46:16.420Z,35.30
2018-11-05T02:51:20.335Z,34.67
2018-11-05T02:56:24.036Z,37.07
2018-11-05T03:01:27.772Z,35.80
2018-11-05T03:06:31.503Z,33.73
2018-11-05T03:11:35.239Z,34.70
2018-11-05T03:16:38.983Z,30.73
2018-11-05T03:21:42.705Z,36.20
2018-11-05T03:26:46.455Z,35.50
2018-11-05T03:31:50.176Z,34.73
2018-11-05T03:36:53.906Z,31.37
2018-11-05T03:41:57.640Z,37.80
2018-11-05T03:47:01.364Z,35.40
2018-11-05T03:52:05.312Z,39.80
2018-11-05T03:57:09.145Z,35.77
2018-11-05T04:02:12.876Z,32.60
2018-11-05T04:07:16.609Z,35.40
2018-11-05T04:12:20.339Z,34.50
2018-11-05T04:17:24.053Z,39.83
2018-11-05T04:22:27.772Z,33.30
2018-11-05T04:27:31.500Z,35.40
2018-11-05T04:32:35.206Z,39.47
2018-11-05T04:37:38.916Z,29.40
2018-11-05T04:42:42.661Z,37.20
2018-11-05T04:47:46.404Z,40.30
2018-11-05T04:52:50.156Z,36.30
2018-11-05T04:57:53.876Z,38.17
2018-11-05T05:02:57.613Z,31.20
2018-11-05T05:08:01.360Z,35.00
2018-11-05T05:13:05.304Z,36.30
2018-11-05T05:18:09.032Z,36.93
2018-11-05T05:23:12.828Z,38.47
2018-11-05T05:28:16.467Z,36.70
2018-11-05T05:33:20.238Z,36.43
2018-11-05T05:38:23.968Z,34.37
2018-11-05T05:43:27.676Z,33.00
2018-11-05T05:48:31.420Z,34.30
2018-11-05T05:53:35.148Z,31.77
2018-11-05T05:58:38.910Z,37.60
2018-11-05T06:03:43.638Z,36.20
2018-11-05T06:08:47.416Z,27.13
2018-11-05T06:13:51.136Z,26.33
2018-11-05T06:18:54.938Z,31.30
2018-11-05T06:23:58.647Z,25.33
2018-11-05T06:29:02.356Z,32.13
2018-11-05T06:34:06.214Z,32.27
2018-11-05T06:39:11.839Z,31.10
2018-11-05T06:44:16.692Z,34.20
2018-11-05T06:49:22.491Z,32.70
2018-11-05T06:54:27.344Z,33.23
2018-11-05T06:59:31.101Z,35.30
2018-11-05T07:04:34.819Z,34.30
2018-11-05T07:09:38.606Z,34.30
2018-11-05T07:14:42.288Z,34.77
2018-11-05T07:19:46.028Z,31.53
2018-11-05T07:24:49.776Z,33.30
2018-11-05T07:29:53.541Z,32.63
2018-11-05T07:34:57.264Z,29.90
2018-11-05T07:40:01.007Z,33.77
2018-11-05T07:45:06.439Z,32.43
2018-11-05T07:50:11.691Z,34.17
2018-11-05T07:55:16.463Z,27.93
2018-11-05T08:00:25.633Z,32.60
2018-11-05T08:05:29.384Z,25.60
2018-11-05T08:10:33.117Z,28.67
2018-11-05T08:15:36.832Z,36.77
2018-11-05T08:20:40.553Z,30.37
2018-11-05T08:25:44.319Z,30.20
2018-11-05T08:30:48.056Z,28.97
2018-11-05T08:35:51.820Z,32.47
2018-11-05T08:40:55.543Z,31.13
2018-11-05T08:45:59.271Z,33.67
2018-11-05T08:51:03.265Z,30.27
2018-11-05T08:56:06.723Z,31.23
2018-11-05T09:01:18.292Z,32.30
2018-11-05T09:06:22.034Z,31.63
2018-11-05T09:11:26.595Z,34.87
2018-11-05T09:16:29.808Z,26.60
2018-11-05T09:21:33.547Z,26.53
2018-11-05T09:26:37.284Z,30.30
2018-11-05T09:31:41.060Z,22.90
2018-11-05T09:36:44.788Z,31.77
2018-11-05T09:41:48.528Z,23.63
2018-11-05T09:46:52.224Z,24.63
2018-11-05T09:51:56.064Z,27.00
2018-11-05T09:56:59.907Z,28.30
2018-11-05T10:02:03.928Z,28.13
2018-11-05T10:07:07.728Z,28.87
2018-11-05T10:12:11.465Z,32.23
2018-11-05T10:17:15.252Z,31.20
2018-11-05T10:22:18.990Z,29.23
2018-11-05T10:27:22.941Z,27.93
2018-11-05T10:32:26.724Z,34.63
2018-11-05T10:37:30.527Z,29.20
2018-11-05T10:42:34.268Z,29.40
2018-11-05T10:47:38.543Z,28.87
2018-11-05T10:52:43.086Z,28.23
2018-11-05T10:57:47.052Z,29.50
2018-11-05T11:02:56.175Z,31.20
2018-11-05T11:08:00.688Z,34.10
2018-11-05T11:13:04.780Z,29.70
2018-11-05T11:18:08.510Z,29.30
2018-11-05T11:23:12.236Z,33.03
2018-11-05T11:28:16.035Z,31.60
2018-11-05T11:33:19.707Z,33.03
2018-11-05T11:38:23.432Z,30.03
2018-11-05T11:43:27.148Z,30.53
2018-11-05T11:48:30.868Z,35.33
2018-11-05T11:53:34.800Z,35.00
2018-11-05T11:58:38.308Z,30.23
2018-11-05T12:03:42.037Z,33.77
2018-11-05T12:08:45.803Z,33.63
2018-11-05T12:13:49.566Z,33.33
2018-11-05T12:18:53.268Z,35.53
2018-11-05T12:23:57.004Z,36.37
2018-11-05T12:29:00.752Z,34.50
2018-11-05T12:34:05.040Z,37.23
2018-11-05T12:39:09.624Z,31.10
2018-11-05T12:44:13.364Z,36.07
2018-11-05T12:49:17.112Z,34.30
2018-11-05T12:54:20.830Z,33.07
2018-11-05T12:59:24.565Z,31.80
2018-11-05T13:04:28.638Z,30.30
2018-11-05T13:09:32.372Z,35.30
2018-11-05T13:14:36.080Z,31.43
2018-11-05T13:19:39.860Z,32.03
2018-11-05T13:24:43.585Z,36.57
2018-11-05T13:29:47.381Z,21.30
2018-11-05T13:34:51.080Z,34.13
2018-11-05T13:39:54.791Z,31.30
2018-11-05T13:44:58.632Z,33.77
2018-11-05T13:50:02.546Z,32.00
2018-11-05T13:55:07.157Z,37.90
2018-11-05T14:00:12.637Z,36.33
2018-11-05T14:05:16.380Z,42.87
2018-11-05T14:10:20.972Z,31.93
2018-11-05T14:15:24.691Z,32.30
2018-11-05T14:20:28.423Z,32.53
2018-11-05T14:25:32.291Z,36.67
2018-11-05T14:30:35.980Z,33.33
2018-11-05T14:35:39.724Z,34.07
2018-11-05T14:40:38.501Z,29.57
2018-11-05T14:45:37.227Z,32.70
2018-11-05T14:50:36.398Z,30.70
2018-11-05T14:55:35.032Z,34.07
2018-11-05T15:00:33.828Z,40.87
2018-11-05T15:05:32.544Z,33.60
2018-11-05T15:10:31.323Z,37.37
2018-11-05T15:15:30.060Z,33.60
2018-11-05T15:20:28.860Z,29.93
2018-11-05T15:25:27.567Z,30.47
2018-11-05T15:30:26.281Z,29.97
2018-11-05T15:35:25.032Z,37.90
2018-11-05T15:40:23.770Z,33.63
2018-11-05T15:45:22.792Z,34.10
2018-11-05T15:50:22.149Z,37.47
2018-11-05T15:55:20.896Z,29.87
2018-11-05T16:00:20.952Z,35.40
2018-11-05T16:05:19.868Z,31.30
2018-11-05T16:10:18.564Z,30.73
2018-11-05T16:15:17.292Z,32.93
2018-11-05T16:20:17.308Z,32.33
2018-11-05T16:25:16.108Z,38.33
2018-11-05T16:30:16.149Z,37.83
2018-11-05T16:35:14.854Z,36.77
2018-11-05T16:40:16.720Z,30.87
2018-11-05T16:45:15.509Z,33.53
2018-11-05T16:50:16.946Z,38.97
2018-11-05T16:55:15.664Z,35.60
2018-11-05T17:00:14.819Z,39.73
2018-11-05T17:05:14.508Z,40.00
2018-11-05T17:10:14.176Z,39.53
2018-11-05T17:15:14.096Z,41.40
2018-11-05T17:20:14.700Z,42.37
2018-11-05T17:25:13.868Z,34.57
2018-11-05T17:30:15.970Z,35.00
2018-11-05T17:35:15.264Z,42.63
2018-11-05T17:40:15.270Z,40.93
2018-11-05T17:45:16.473Z,41.13
2018-11-05T17:50:17.316Z,41.80
2018-11-05T17:55:16.635Z,35.50
2018-11-05T18:00:16.567Z,41.73
2018-11-05T18:05:15.575Z,48.10
2018-11-05T18:10:14.329Z,38.20
2018-11-05T18:15:13.448Z,38.93
2018-11-05T18:20:13.215Z,40.63
2018-11-05T18:25:13.352Z,40.90
2018-11-05T18:30:12.781Z,42.20
2018-11-05T18:35:12.808Z,38.40
2018-11-05T18:40:13.368Z,43.17
2018-11-05T18:45:13.592Z,42.60
2018-11-05T18:50:15.062Z,41.03
2018-11-05T18:55:15.191Z,42.70
2018-11-05T19:00:20.636Z,43.43
2018-11-05T19:05:20.094Z,44.67
2018-11-05T19:10:18.819Z,41.00
2018-11-05T19:15:17.593Z,44.23
2018-11-05T19:20:16.608Z,42.90
2018-11-05T19:25:16.132Z,42.27
2018-11-05T19:30:21.167Z,42.33
2018-11-05T19:35:19.884Z,43.33
2018-11-05T19:40:19.212Z,43.57
2018-11-05T19:45:19.245Z,40.50
2018-11-05T19:50:19.261Z,44.00
2018-11-05T19:55:18.529Z,43.80
2018-11-05T20:00:20.039Z,41.47
2018-11-05T20:05:18.902Z,40.90
2018-11-05T20:10:17.661Z,39.40
2018-11-05T20:15:16.897Z,37.10
2018-11-05T20:20:16.933Z,41.60
2018-11-05T20:25:15.672Z,37.23
2018-11-05T20:30:16.786Z,33.37
2018-11-05T20:35:15.514Z,38.30
2018-11-05T20:40:15.798Z,31.10
2018-11-05T20:45:15.147Z,36.20
2018-11-05T20:50:14.817Z,35.10
2018-11-05T20:55:14.700Z,26.37
2018-11-05T21:00:14.949Z,40.00
2018-11-05T21:05:13.673Z,35.90
2018-11-05T21:10:13.367Z,44.47
2018-11-05T21:15:13.837Z,36.30
2018-11-05T21:20:13.080Z,36.70
2018-11-05T21:25:11.932Z,35.30
2018-11-05T21:30:12.664Z,36.83
2018-11-05T21:35:13.444Z,40.00
2018-11-05T21:40:13.288Z,40.80
2018-11-05T21:45:13.099Z,41.30
2018-11-05T21:50:13.494Z,42.03
2018-11-05T21:55:12.092Z,38.40
2018-11-05T22:00:13.617Z,30.27
2018-11-05T22:05:12.532Z,34.47
2018-11-05T22:10:11.983Z,37.23
2018-11-05T22:15:11.321Z,34.37
2018-11-05T22:20:11.168Z,39.90
2018-11-05T22:25:11.435Z,37.90
2018-11-05T22:30:10.968Z,35.73
2018-11-05T22:35:09.708Z,41.50
2018-11-05T22:40:11.339Z,35.10
2018-11-05T22:45:11.377Z,32.23
2018-11-05T22:50:10.303Z,34.17
2018-11-05T22:55:09.337Z,35.13
2018-11-05T23:00:17.255Z,39.43
2018-11-05T23:05:15.893Z,36.63
2018-11-05T23:10:14.611Z,36.00
2018-11-05T23:15:13.320Z,33.87
2018-11-05T23:20:12.072Z,26.87
2018-11-05T23:25:11.092Z,31.23
2018-11-05T23:30:11.288Z,30.97
2018-11-05T23:35:10.799Z,26.57
2018-11-05T23:40:09.704Z,31.07
2018-11-05T23:45:10.551Z,28.90
2018-11-05T23:50:09.595Z,28.17
2018-11-05T23:55:09.212Z,29.73
